Quonset State Airport North Kingstown US
ICAO: KOQU
IATA: OQU
Category: Medium
Scheduled Services: No

Elevation: 18 ft
TransAlt. 18000 ft.

Airport Communications:
PROVIDENCE APP/DEP:135.4
CTAF:126.35
GND:134.5
ANG OPS:38.33
ARNG OPS:38.95
BRIDGEPORT RDO:122.3
TWR:126.35
UNICOM:122.95

KOQU Zoom In..

If you have problems with the map follow the link
https://www.worldairports.se/pages/airport.php?
ICAO=KOQU

Runways:

(A) RW 05 length 4000 ft width 75 ft
---- / hdg 49

(B) RW 16 length 7504 ft width 150 ft
ILS 109.50 / hdg 160

(C) RW 23 length 4000 ft width 75 ft
---- / hdg 229

(D) RW 34 length 7504 ft width 150 ft
---- / hdg 340

Location; KOQU
Day. 21 / Time. 17.50 Zulu
* Altimeter: 29.79
* Temperature: 08° c. 46.4°f.
* Wind from: 350° Speed 25 kn.
Dewpoint: -03° c.
Visibility: 15 Statute Miles.
Clouds: Broken 4600 ft.

KOQU 211750Z 35025KT 15SM BKN046 08/M03 A2979


Wind From 350°
Speed 25 kn.

 
 
jpsmedia.com for Web Design worldairports.se 2018   terms of use